Time;durP1;ratioP1;P1;durP2;ratioP2;P2;SDS_P1;SDS_P2;PMS_P1;PMS_P2;Temp;Humidity;BMP_temperature;BMP_pressure;BME280_temperature;BME280_humidity;BME280_pressure;Samples;Min_cycle;Max_cycle;Signal;HPM_P1;HPM_P2
2022/04/10 00:00:45;;;;;;;2.43;1.70;;;;;;;;;;5128341;27;20199;-92
2022/04/10 00:03:13;;;;;;;2.33;1.70;;;;;;;;;;5114816;27;20678;-91
2022/04/10 00:05:41;;;;;;;2.77;1.80;;;;;;;;;;5115733;28;20219;-92
2022/04/10 00:08:08;;;;;;;2.80;1.60;;;;;;;;;;5116185;28;20208;-91
2022/04/10 00:10:35;;;;;;;2.90;2.10;;;;;;;;;;5113570;28;20212;-92
2022/04/10 00:13:03;;;;;;;1.93;1.77;;;;;;;;;;5107888;27;20208;-93
2022/04/10 00:15:30;;;;;;;2.13;1.73;;;;;;;;;;5118197;27;20215;-93
2022/04/10 00:17:58;;;;;;;2.90;2.07;;;;;;;;;;5133231;27;20203;-92
2022/04/10 00:20:26;;;;;;;2.60;2.07;;;;;;;;;;5098617;28;20212;-92
2022/04/10 00:22:54;;;;;;;2.53;2.10;;;;;;;;;;5112712;28;20204;-92
2022/04/10 00:25:21;;;;;;;3.13;2.17;;;;;;;;;;5115641;28;20200;-92
2022/04/10 00:27:49;;;;;;;3.17;2.13;;;;;;;;;;5107082;28;20207;-92
2022/04/10 00:30:17;;;;;;;2.03;1.90;;;;;;;;;;5115333;27;20204;-92
2022/04/10 00:32:44;;;;;;;3.07;2.17;;;;;;;;;;5111009;28;20204;-92
2022/04/10 00:35:12;;;;;;;2.53;2.13;;;;;;;;;;5104594;28;20204;-92
2022/04/10 00:37:41;;;;;;;4.43;2.20;;;;;;;;;;5114965;28;20227;-92
2022/04/10 00:40:09;;;;;;;2.40;1.80;;;;;;;;;;5114653;28;20662;-92
2022/04/10 00:42:37;;;;;;;2.43;1.90;;;;;;;;;;5109757;28;20205;-91
2022/04/10 00:45:05;;;;;;;2.50;2.30;;;;;;;;;;5110403;28;20207;-91
2022/04/10 00:47:32;;;;;;;2.40;2.20;;;;;;;;;;5119504;27;20372;-92
2022/04/10 00:50:00;;;;;;;3.33;2.00;;;;;;;;;;5117462;27;20288;-92
2022/04/10 00:52:28;;;;;;;2.30;2.10;;;;;;;;;;5122798;27;20253;-92
2022/04/10 00:54:56;;;;;;;2.53;2.20;;;;;;;;;;5114098;28;20207;-93
2022/04/10 00:57:25;;;;;;;2.10;2.00;;;;;;;;;;5114570;28;20224;-92
2022/04/10 00:59:52;;;;;;;1.63;1.53;;;;;;;;;;5114896;28;20208;-91
2022/04/10 01:02:20;;;;;;;4.20;2.30;;;;;;;;;;5099904;27;20658;-92
2022/04/10 01:04:47;;;;;;;4.03;2.40;;;;;;;;;;5110623;28;20200;-92
2022/04/10 01:07:15;;;;;;;2.67;1.90;;;;;;;;;;5114795;28;20220;-92
2022/04/10 01:09:43;;;;;;;2.20;2.00;;;;;;;;;;5112636;27;20631;-93
2022/04/10 01:12:12;;;;;;;6.00;2.17;;;;;;;;;;5105940;28;20200;-92
2022/04/10 01:14:39;;;;;;;2.30;2.07;;;;;;;;;;5114024;28;20272;-92
2022/04/10 01:17:09;;;;;;;2.70;1.77;;;;;;;;;;5118547;27;20228;-92
2022/04/10 01:19:39;;;;;;;2.43;2.20;;;;;;;;;;5104794;28;20237;-92
2022/04/10 01:22:07;;;;;;;3.37;2.13;;;;;;;;;;5113943;28;20196;-90
2022/04/10 01:24:37;;;;;;;1.90;1.60;;;;;;;;;;5128123;27;20200;-90
2022/04/10 01:27:05;;;;;;;1.93;1.83;;;;;;;;;;5109927;28;20228;-91
2022/04/10 01:29:33;;;;;;;2.47;2.13;;;;;;;;;;5123250;28;20239;-91
2022/04/10 01:32:01;;;;;;;2.17;2.00;;;;;;;;;;5144078;27;20229;-92
2022/04/10 01:34:28;;;;;;;2.37;1.90;;;;;;;;;;5108865;27;20236;-92
2022/04/10 01:36:56;;;;;;;2.20;2.00;;;;;;;;;;5105772;28;20227;-92
2022/04/10 01:39:26;;;;;;;1.93;1.83;;;;;;;;;;5117868;27;20212;-93
2022/04/10 01:41:55;;;;;;;2.07;1.90;;;;;;;;;;5111150;28;20227;-90
2022/04/10 01:44:23;;;;;;;2.93;2.20;;;;;;;;;;5114329;27;20231;-92
2022/04/10 01:46:50;;;;;;;3.07;2.67;;;;;;;;;;5113782;28;20215;-92
2022/04/10 01:49:17;;;;;;;3.00;2.60;;;;;;;;;;5114509;28;20231;-93
2022/04/10 01:51:44;;;;;;;3.50;2.53;;;;;;;;;;5107905;28;20200;-90
2022/04/10 01:54:12;;;;;;;2.40;2.20;;;;;;;;;;5113382;28;20610;-92
2022/04/10 01:56:39;;;;;;;2.37;1.77;;;;;;;;;;5113989;28;20226;-92
2022/04/10 01:59:09;;;;;;;2.10;1.90;;;;;;;;;;5110726;28;20200;-92
2022/04/10 02:01:36;;;;;;;2.90;1.80;;;;;;;;;;5102147;28;20210;-93
2022/04/10 02:04:03;;;;;;;2.40;2.20;;;;;;;;;;5112271;28;20207;-93
2022/04/10 02:06:31;;;;;;;2.37;1.70;;;;;;;;;;5109471;28;20220;-92
2022/04/10 02:08:58;;;;;;;2.80;2.17;;;;;;;;;;5107303;28;20216;-92
2022/04/10 02:11:25;;;;;;;2.33;2.00;;;;;;;;;;5113331;28;20203;-92
2022/04/10 02:13:53;;;;;;;4.87;2.50;;;;;;;;;;5113486;28;20233;-92
2022/04/10 02:16:22;;;;;;;4.27;2.00;;;;;;;;;;5116694;28;20227;-91
2022/04/10 02:18:49;;;;;;;2.83;1.73;;;;;;;;;;5128201;27;20234;-90
2022/04/10 02:21:17;;;;;;;1.97;1.73;;;;;;;;;;5135248;28;20172;-89
2022/04/10 02:23:45;;;;;;;3.00;2.00;;;;;;;;;;5132344;28;20195;-88
2022/04/10 02:26:13;;;;;;;2.20;1.87;;;;;;;;;;5116895;28;20236;-90
2022/04/10 02:28:40;;;;;;;2.37;1.93;;;;;;;;;;5128855;27;20201;-90
2022/04/10 02:31:07;;;;;;;1.70;1.50;;;;;;;;;;5119881;28;20226;-89
2022/04/10 02:33:37;;;;;;;3.37;1.73;;;;;;;;;;5126257;28;20253;-92
2022/04/10 02:36:05;;;;;;;1.90;1.80;;;;;;;;;;5115427;28;20701;-92
2022/04/10 02:38:32;;;;;;;2.00;1.73;;;;;;;;;;5105892;27;20266;-91
2022/04/10 02:40:59;;;;;;;2.50;1.77;;;;;;;;;;5107752;28;20689;-92
2022/04/10 02:43:26;;;;;;;2.73;1.90;;;;;;;;;;5113657;28;20646;-92
2022/04/10 02:45:54;;;;;;;1.80;1.70;;;;;;;;;;5107183;28;20327;-92
2022/04/10 02:48:21;;;;;;;5.20;2.00;;;;;;;;;;5106461;28;20207;-92
2022/04/10 02:50:50;;;;;;;3.67;1.60;;;;;;;;;;5113174;28;20228;-92
2022/04/10 02:53:17;;;;;;;2.03;1.83;;;;;;;;;;5113080;28;20654;-92
2022/04/10 02:55:44;;;;;;;3.07;1.90;;;;;;;;;;5107745;28;20251;-89
2022/04/10 02:58:12;;;;;;;2.83;1.97;;;;;;;;;;5112122;28;20249;-93
2022/04/10 03:00:39;;;;;;;2.00;1.80;;;;;;;;;;5111972;27;20211;-88
2022/04/10 03:03:06;;;;;;;3.83;2.40;;;;;;;;;;5116600;28;20200;-92
2022/04/10 03:05:34;;;;;;;2.70;1.63;;;;;;;;;;5117131;28;20203;-92
2022/04/10 03:08:02;;;;;;;2.37;1.83;;;;;;;;;;5113614;27;20257;-91
2022/04/10 03:10:30;;;;;;;1.80;1.70;;;;;;;;;;5111333;28;20264;-93
2022/04/10 03:12:57;;;;;;;2.80;2.03;;;;;;;;;;5116929;28;20208;-92
2022/04/10 03:15:24;;;;;;;2.43;1.53;;;;;;;;;;5117178;28;20211;-92
2022/04/10 03:17:52;;;;;;;3.07;2.13;;;;;;;;;;5112102;28;20220;-92
2022/04/10 03:20:19;;;;;;;1.67;1.57;;;;;;;;;;5122107;27;20223;-92
2022/04/10 03:22:46;;;;;;;2.17;1.80;;;;;;;;;;5116981;28;20204;-92
2022/04/10 03:25:15;;;;;;;2.60;1.67;;;;;;;;;;5117055;28;20210;-92
2022/04/10 03:27:42;;;;;;;1.90;1.80;;;;;;;;;;5111849;28;20220;-92
2022/04/10 03:30:11;;;;;;;2.23;1.90;;;;;;;;;;5114698;27;20573;-92
2022/04/10 03:32:40;;;;;;;2.70;2.23;;;;;;;;;;5116496;28;20199;-92
2022/04/10 03:35:08;;;;;;;4.30;1.80;;;;;;;;;;5116446;28;20289;-92
2022/04/10 03:37:36;;;;;;;2.90;2.20;;;;;;;;;;5107680;28;20277;-92
2022/04/10 03:40:04;;;;;;;2.77;2.13;;;;;;;;;;5115640;27;20211;-93
2022/04/10 03:42:39;;;;;;;3.40;1.97;;;;;;;;;;5116030;28;20212;-90
2022/04/10 03:45:07;;;;;;;4.10;1.77;;;;;;;;;;5111278;28;20790;-94
2022/04/10 03:47:35;;;;;;;4.00;2.00;;;;;;;;;;5111682;28;20774;-92
2022/04/10 03:50:02;;;;;;;1.97;1.70;;;;;;;;;;5115563;27;20225;-92
2022/04/10 03:52:29;;;;;;;2.63;1.90;;;;;;;;;;5112842;28;20633;-93
2022/04/10 03:54:56;;;;;;;3.23;1.67;;;;;;;;;;5102237;28;20280;-91
2022/04/10 03:57:24;;;;;;;1.83;1.73;;;;;;;;;;5106777;27;20690;-92
2022/04/10 03:59:52;;;;;;;1.57;1.43;;;;;;;;;;5122629;27;20199;-92
2022/04/10 04:02:22;;;;;;;2.80;2.37;;;;;;;;;;5129478;27;20215;-90
2022/04/10 04:04:50;;;;;;;2.43;1.60;;;;;;;;;;5110315;28;20226;-92
2022/04/10 04:07:17;;;;;;;4.37;1.90;;;;;;;;;;5112424;27;20222;-92
2022/04/10 04:09:45;;;;;;;2.80;1.70;;;;;;;;;;5113074;27;20210;-90
2022/04/10 04:12:12;;;;;;;2.00;1.80;;;;;;;;;;5110206;28;20196;-92
2022/04/10 04:14:40;;;;;;;2.03;1.83;;;;;;;;;;5109926;27;20336;-93
2022/04/10 04:17:09;;;;;;;2.07;1.67;;;;;;;;;;5115109;28;20232;-92
2022/04/10 04:19:36;;;;;;;2.23;1.93;;;;;;;;;;5115365;28;20212;-92
2022/04/10 04:22:04;;;;;;;4.10;1.97;;;;;;;;;;5112174;28;20208;-91
2022/04/10 04:24:31;;;;;;;2.93;1.73;;;;;;;;;;5111791;27;20265;-92
2022/04/10 04:26:58;;;;;;;1.70;1.60;;;;;;;;;;5107017;28;20227;-92
2022/04/10 04:29:26;;;;;;;1.73;1.50;;;;;;;;;;5117989;27;20207;-94
2022/04/10 04:31:53;;;;;;;1.70;1.60;;;;;;;;;;5109885;28;20200;-92
2022/04/10 04:34:22;;;;;;;2.13;1.90;;;;;;;;;;5120840;27;20496;-92
2022/04/10 04:36:49;;;;;;;2.00;1.57;;;;;;;;;;5114316;28;20223;-89
2022/04/10 04:39:16;;;;;;;2.53;1.60;;;;;;;;;;5100153;27;20249;-92
2022/04/10 04:41:44;;;;;;;2.17;2.03;;;;;;;;;;5105968;28;20257;-92
2022/04/10 04:44:11;;;;;;;2.57;2.30;;;;;;;;;;5115601;27;20600;-93
2022/04/10 04:46:38;;;;;;;3.03;2.13;;;;;;;;;;5115639;28;20223;-93
2022/04/10 04:49:06;;;;;;;5.43;1.80;;;;;;;;;;5109626;28;20211;-92
2022/04/10 04:51:36;;;;;;;1.77;1.60;;;;;;;;;;5115163;28;20249;-93
2022/04/10 04:54:04;;;;;;;2.47;1.63;;;;;;;;;;5115120;27;20204;-92
2022/04/10 04:56:31;;;;;;;1.50;1.40;;;;;;;;;;5115296;28;20232;-90
2022/04/10 04:58:58;;;;;;;1.93;1.80;;;;;;;;;;5104226;28;20917;-92
2022/04/10 05:01:26;;;;;;;1.40;1.40;;;;;;;;;;5110719;27;20220;-92
2022/04/10 05:03:53;;;;;;;1.90;1.70;;;;;;;;;;5112426;28;20253;-93
2022/04/10 05:06:20;;;;;;;1.97;1.60;;;;;;;;;;5102941;28;20314;-92
2022/04/10 05:08:49;;;;;;;3.57;2.20;;;;;;;;;;5103843;27;20204;-92
2022/04/10 05:11:16;;;;;;;1.93;1.70;;;;;;;;;;5120179;27;20196;-91
2022/04/10 05:13:44;;;;;;;4.57;2.20;;;;;;;;;;5104128;27;20204;-91
2022/04/10 05:16:12;;;;;;;2.03;1.80;;;;;;;;;;5103448;28;20231;-91
2022/04/10 05:18:40;;;;;;;3.03;1.90;;;;;;;;;;5110613;28;20308;-91
2022/04/10 05:21:07;;;;;;;2.93;1.90;;;;;;;;;;5106274;27;20200;-92
2022/04/10 05:23:35;;;;;;;2.20;2.00;;;;;;;;;;5115542;27;20204;-92
2022/04/10 05:26:03;;;;;;;2.80;2.13;;;;;;;;;;5114421;28;20216;-92
2022/04/10 05:28:31;;;;;;;2.80;2.33;;;;;;;;;;5109010;28;20296;-92
2022/04/10 05:30:58;;;;;;;2.17;2.03;;;;;;;;;;5113598;27;20227;-92
2022/04/10 05:33:26;;;;;;;4.77;1.90;;;;;;;;;;5116020;27;20208;-92
2022/04/10 05:35:55;;;;;;;2.87;1.90;;;;;;;;;;5114327;28;20228;-93
2022/04/10 05:38:22;;;;;;;2.50;1.80;;;;;;;;;;5107224;28;20231;-93
2022/04/10 05:40:52;;;;;;;3.93;2.27;;;;;;;;;;5108714;28;20265;-92
2022/04/10 05:43:21;;;;;;;6.87;2.30;;;;;;;;;;5116370;27;20200;-93
2022/04/10 05:45:49;;;;;;;3.53;2.10;;;;;;;;;;5113457;27;20247;-91
2022/04/10 05:48:16;;;;;;;3.17;1.70;;;;;;;;;;5106513;28;20227;-92
2022/04/10 05:50:44;;;;;;;2.03;1.80;;;;;;;;;;5119580;28;20230;-92
2022/04/10 05:53:12;;;;;;;2.57;1.97;;;;;;;;;;5130346;27;20249;-92
2022/04/10 05:55:39;;;;;;;2.20;2.00;;;;;;;;;;5112380;27;20563;-92
2022/04/10 05:58:06;;;;;;;2.70;2.50;;;;;;;;;;5114237;27;20227;-92
2022/04/10 06:00:35;;;;;;;4.03;2.63;;;;;;;;;;5113611;28;20665;-92
2022/04/10 06:03:03;;;;;;;3.00;2.40;;;;;;;;;;5107650;28;20212;-93
2022/04/10 06:05:32;;;;;;;5.00;2.37;;;;;;;;;;5107128;28;20204;-92
2022/04/10 06:07:59;;;;;;;4.97;2.30;;;;;;;;;;5119663;28;20291;-92
2022/04/10 06:10:26;;;;;;;2.77;2.27;;;;;;;;;;5113635;28;20253;-92
2022/04/10 06:12:53;;;;;;;2.53;2.33;;;;;;;;;;5107783;28;20200;-92
2022/04/10 06:15:22;;;;;;;2.70;2.50;;;;;;;;;;5109061;28;20594;-93
2022/04/10 06:17:51;;;;;;;3.33;2.73;;;;;;;;;;5117880;28;20220;-90
2022/04/10 06:20:18;;;;;;;2.00;1.90;;;;;;;;;;5116857;27;20256;-91
2022/04/10 06:22:46;;;;;;;4.23;2.70;;;;;;;;;;5112465;28;20208;-92
2022/04/10 06:25:18;;;;;;;3.00;2.00;;;;;;;;;;5114736;28;20211;-92
2022/04/10 06:27:45;;;;;;;3.53;2.40;;;;;;;;;;5116735;27;20208;-92
2022/04/10 06:30:13;;;;;;;3.27;2.30;;;;;;;;;;5107954;27;20200;-91
2022/04/10 06:32:40;;;;;;;4.10;2.30;;;;;;;;;;5111529;27;20256;-92
2022/04/10 06:35:10;;;;;;;1.80;1.70;;;;;;;;;;5106979;27;20647;-92
2022/04/10 06:37:38;;;;;;;2.13;1.93;;;;;;;;;;5118834;27;20215;-92
2022/04/10 06:40:06;;;;;;;3.60;2.30;;;;;;;;;;5128591;27;20225;-91
2022/04/10 06:42:33;;;;;;;2.20;2.00;;;;;;;;;;5112752;27;20204;-92
2022/04/10 06:45:01;;;;;;;2.00;1.80;;;;;;;;;;5114286;27;20204;-92
2022/04/10 06:47:32;;;;;;;2.53;2.33;;;;;;;;;;5116518;27;20223;-91
2022/04/10 06:49:59;;;;;;;3.00;2.23;;;;;;;;;;5123987;27;20306;-90
2022/04/10 06:52:28;;;;;;;2.57;2.33;;;;;;;;;;5113503;27;20597;-91
2022/04/10 06:54:56;;;;;;;2.40;2.10;;;;;;;;;;5117366;28;20196;-91
2022/04/10 06:57:23;;;;;;;2.30;2.03;;;;;;;;;;5115730;28;20288;-91
2022/04/10 06:59:50;;;;;;;5.20;2.03;;;;;;;;;;5116851;28;20207;-92
2022/04/10 07:02:21;;;;;;;2.30;2.10;;;;;;;;;;5119188;28;20619;-91
2022/04/10 07:04:49;;;;;;;3.23;2.20;;;;;;;;;;5120841;28;20931;-92
2022/04/10 07:07:16;;;;;;;3.00;2.00;;;;;;;;;;5114495;28;20231;-92
2022/04/10 07:09:45;;;;;;;3.33;2.80;;;;;;;;;;5099547;28;20264;-92
2022/04/10 07:12:12;;;;;;;2.10;2.00;;;;;;;;;;5111822;28;20615;-92
2022/04/10 07:14:39;;;;;;;4.23;2.20;;;;;;;;;;5127475;28;20595;-91
2022/04/10 07:17:29;;;;;;;3.85;2.45;;;;;;;;;;5115659;28;20227;-92
2022/04/10 07:19:56;;;;;;;2.77;2.10;;;;;;;;;;5114522;28;20654;-92
2022/04/10 07:25:10;;;;;;;3.53;2.20;;;;;;;;;;5106700;28;20215;-91
2022/04/10 07:27:37;;;;;;;3.20;2.67;;;;;;;;;;5117241;28;20307;-91
2022/04/10 07:30:05;;;;;;;4.43;2.60;;;;;;;;;;5123465;28;20196;-91
2022/04/10 07:32:33;;;;;;;1.80;1.70;;;;;;;;;;5124892;28;20590;-92
2022/04/10 07:35:03;;;;;;;2.73;2.50;;;;;;;;;;5101129;28;20659;-92
2022/04/10 07:37:30;;;;;;;3.90;2.47;;;;;;;;;;5114499;28;20230;-91
2022/04/10 07:39:57;;;;;;;3.00;2.37;;;;;;;;;;5114126;28;20204;-91
2022/04/10 07:42:29;;;;;;;4.00;2.40;;;;;;;;;;5109396;28;20258;-92
2022/04/10 07:44:59;;;;;;;3.20;2.93;;;;;;;;;;5102900;28;20217;-91
2022/04/10 07:47:25;;;;;;;2.80;2.57;;;;;;;;;;5113656;27;20216;-90
2022/04/10 07:49:53;;;;;;;3.83;2.70;;;;;;;;;;5109225;28;20213;-92
2022/04/10 07:52:20;;;;;;;4.10;2.90;;;;;;;;;;5115725;28;20200;-92
2022/04/10 07:54:47;;;;;;;2.20;2.10;;;;;;;;;;5115581;28;20204;-92
2022/04/10 07:57:16;;;;;;;3.67;2.67;;;;;;;;;;5101687;28;20231;-92
2022/04/10 07:59:45;;;;;;;3.23;2.40;;;;;;;;;;5111665;28;20204;-92
2022/04/10 08:02:12;;;;;;;3.77;2.80;;;;;;;;;;5115820;28;20204;-92
2022/04/10 08:04:39;;;;;;;3.07;2.27;;;;;;;;;;5105653;28;20219;-91
2022/04/10 08:07:07;;;;;;;4.37;2.50;;;;;;;;;;5115068;28;20224;-91
2022/04/10 08:09:34;;;;;;;2.50;2.30;;;;;;;;;;5108150;28;20628;-91
2022/04/10 08:12:01;;;;;;;3.10;2.17;;;;;;;;;;5112822;28;20227;-91
2022/04/10 08:14:29;;;;;;;3.87;2.37;;;;;;;;;;5110413;28;20272;-90
2022/04/10 08:16:57;;;;;;;2.40;2.13;;;;;;;;;;5112782;28;20308;-91
2022/04/10 08:19:25;;;;;;;3.90;2.53;;;;;;;;;;5114524;28;20239;-91
2022/04/10 08:21:52;;;;;;;2.20;2.00;;;;;;;;;;5115401;28;20233;-91
2022/04/10 08:24:19;;;;;;;2.80;2.60;;;;;;;;;;5107935;28;20246;-91
2022/04/10 08:26:47;;;;;;;4.33;2.73;;;;;;;;;;5109344;28;20635;-91
2022/04/10 08:29:14;;;;;;;4.93;2.50;;;;;;;;;;5114209;28;20188;-92
2022/04/10 08:31:41;;;;;;;2.60;2.30;;;;;;;;;;5114909;28;20239;-91
2022/04/10 08:34:10;;;;;;;3.13;2.83;;;;;;;;;;5106684;28;20261;-91
2022/04/10 08:36:39;;;;;;;2.57;2.37;;;;;;;;;;5109505;28;20673;-91
2022/04/10 08:39:07;;;;;;;2.53;2.33;;;;;;;;;;5114460;28;20295;-91
2022/04/10 08:41:35;;;;;;;3.30;2.40;;;;;;;;;;5110216;28;20208;-92
2022/04/10 08:44:03;;;;;;;3.00;2.70;;;;;;;;;;5105360;28;20208;-91
2022/04/10 08:46:31;;;;;;;4.20;2.70;;;;;;;;;;5114448;28;20285;-91
2022/04/10 08:48:59;;;;;;;2.73;2.40;;;;;;;;;;5114516;28;20196;-91
2022/04/10 08:51:29;;;;;;;3.80;3.00;;;;;;;;;;5110436;28;20230;-91
2022/04/10 08:53:56;;;;;;;2.83;2.63;;;;;;;;;;5113225;28;20211;-90
2022/04/10 08:56:24;;;;;;;4.37;2.90;;;;;;;;;;5114393;28;20220;-91
2022/04/10 08:58:52;;;;;;;3.53;2.77;;;;;;;;;;5111213;28;20239;-91
2022/04/10 09:01:20;;;;;;;2.97;2.53;;;;;;;;;;5109179;28;20211;-91
2022/04/10 09:03:47;;;;;;;2.83;2.57;;;;;;;;;;5110294;28;20639;-91
2022/04/10 09:06:15;;;;;;;2.63;2.43;;;;;;;;;;5122693;27;20310;-90
2022/04/10 09:08:44;;;;;;;4.80;2.60;;;;;;;;;;5109171;27;20209;-90
2022/04/10 09:11:12;;;;;;;5.63;2.80;;;;;;;;;;5115305;28;20196;-91
2022/04/10 09:13:41;;;;;;;3.00;2.60;;;;;;;;;;5116891;27;20196;-90
2022/04/10 09:16:10;;;;;;;2.97;2.67;;;;;;;;;;5114298;27;20215;-90
2022/04/10 09:18:54;;;;;;;5.30;2.93;;;;;;;;;;5120341;28;20328;-90
2022/04/10 09:21:23;;;;;;;5.43;3.20;;;;;;;;;;5113481;28;20260;-93
2022/04/10 09:23:59;;;;;;;3.40;3.10;;;;;;;;;;5117016;27;20212;-91
2022/04/10 09:26:27;;;;;;;3.37;3.07;;;;;;;;;;5115977;27;20225;-91
2022/04/10 09:28:54;;;;;;;3.20;2.90;;;;;;;;;;5106022;28;20203;-92
2022/04/10 09:31:26;;;;;;;3.90;2.90;;;;;;;;;;5114882;28;20204;-92
2022/04/10 09:33:53;;;;;;;4.90;3.27;;;;;;;;;;5114448;27;20218;-92
2022/04/10 09:36:29;;;;;;;4.67;2.97;;;;;;;;;;5109104;28;20224;-92
2022/04/10 09:38:58;;;;;;;6.73;2.77;;;;;;;;;;5115514;28;20224;-92
2022/04/10 09:41:25;;;;;;;3.87;2.50;;;;;;;;;;5113025;28;20204;-92
2022/04/10 09:43:52;;;;;;;4.87;3.00;;;;;;;;;;5121106;27;20196;-92
2022/04/10 09:46:19;;;;;;;5.57;2.90;;;;;;;;;;5102685;27;20236;-92
2022/04/10 09:48:49;;;;;;;2.87;2.63;;;;;;;;;;5108972;27;20223;-92
2022/04/10 09:51:16;;;;;;;5.03;2.70;;;;;;;;;;5101722;28;20208;-91
2022/04/10 09:54:01;;;;;;;3.27;2.87;;;;;;;;;;5110724;27;20207;-91
2022/04/10 09:56:30;;;;;;;4.53;3.00;;;;;;;;;;5097408;27;20705;-90
2022/04/10 09:58:57;;;;;;;2.67;2.27;;;;;;;;;;5113761;27;20573;-92
2022/04/10 10:01:25;;;;;;;3.10;2.80;;;;;;;;;;5110370;28;20215;-92
2022/04/10 10:03:53;;;;;;;3.43;2.20;;;;;;;;;;5106216;28;20211;-91
2022/04/10 10:06:20;;;;;;;2.73;2.53;;;;;;;;;;5102064;28;20255;-91
2022/04/10 10:08:48;;;;;;;1.50;1.27;;;;;;;;;;5109345;27;20199;-92
2022/04/10 10:11:16;;;;;;;2.60;2.37;;;;;;;;;;5113055;28;20210;-91
2022/04/10 10:13:44;;;;;;;4.13;2.60;;;;;;;;;;5113366;28;20204;-92
2022/04/10 10:16:12;;;;;;;3.43;1.93;;;;;;;;;;5108933;28;20638;-92
2022/04/10 10:18:40;;;;;;;2.70;2.50;;;;;;;;;;5108599;28;20277;-92
2022/04/10 10:21:10;;;;;;;2.90;2.43;;;;;;;;;;5113164;28;20658;-92
2022/04/10 10:23:38;;;;;;;1.93;1.77;;;;;;;;;;5111426;28;20295;-90
2022/04/10 10:26:10;;;;;;;2.30;2.13;;;;;;;;;;5103057;28;20331;-92
2022/04/10 10:28:55;;;;;;;4.77;2.10;;;;;;;;;;5113276;28;20196;-91
2022/04/10 10:31:38;;;;;;;4.00;2.30;;;;;;;;;;5113331;28;20298;-92
2022/04/10 10:34:08;;;;;;;2.63;2.30;;;;;;;;;;5102800;28;20214;-91
2022/04/10 10:36:37;;;;;;;3.77;2.43;;;;;;;;;;5111451;28;20273;-91
2022/04/10 10:39:05;;;;;;;2.37;2.20;;;;;;;;;;5112890;28;20216;-91
2022/04/10 10:41:34;;;;;;;3.87;2.43;;;;;;;;;;5109506;28;20214;-91
2022/04/10 10:44:18;;;;;;;4.53;2.67;;;;;;;;;;5111867;28;20277;-91
2022/04/10 10:47:02;;;;;;;3.47;2.43;;;;;;;;;;5112853;28;20660;-93
2022/04/10 10:49:30;;;;;;;2.70;2.50;;;;;;;;;;5108034;28;20197;-92
2022/04/10 10:51:58;;;;;;;2.33;1.87;;;;;;;;;;5104744;28;20204;-92
2022/04/10 10:54:32;;;;;;;4.97;2.20;;;;;;;;;;5112184;28;20199;-92
2022/04/10 10:57:00;;;;;;;2.40;2.20;;;;;;;;;;5108246;28;20231;-92
2022/04/10 10:59:39;;;;;;;2.27;2.07;;;;;;;;;;5111815;28;20228;-92
2022/04/10 11:02:10;;;;;;;2.13;1.87;;;;;;;;;;5126315;28;20254;-92
2022/04/10 11:04:41;;;;;;;2.97;1.70;;;;;;;;;;5110849;28;20208;-92
2022/04/10 11:07:13;;;;;;;3.37;2.23;;;;;;;;;;5115951;28;20252;-93
2022/04/10 11:09:58;;;;;;;3.27;2.20;;;;;;;;;;5112378;28;20204;-93
2022/04/10 11:12:31;;;;;;;6.33;3.00;;;;;;;;;;5111726;28;20219;-93
2022/04/10 11:15:01;;;;;;;5.10;3.07;;;;;;;;;;5105567;28;20282;-93
2022/04/10 11:17:30;;;;;;;6.60;2.93;;;;;;;;;;5113937;28;20215;-93
2022/04/10 11:19:59;;;;;;;3.40;2.47;;;;;;;;;;5117047;28;20224;-93
2022/04/10 11:22:27;;;;;;;5.10;3.27;;;;;;;;;;5109370;28;20635;-93
2022/04/10 11:24:55;;;;;;;3.80;3.00;;;;;;;;;;5114676;28;20264;-93
2022/04/10 11:27:41;;;;;;;3.70;3.00;;;;;;;;;;5118937;28;20251;-94
2022/04/10 11:30:09;;;;;;;2.47;2.27;;;;;;;;;;5111904;28;20204;-94
2022/04/10 11:32:43;;;;;;;3.63;2.80;;;;;;;;;;5116233;27;20207;-93
2022/04/10 11:35:17;;;;;;;3.67;2.30;;;;;;;;;;5117563;28;20268;-92
2022/04/10 11:37:48;;;;;;;6.00;2.63;;;;;;;;;;5117160;28;20292;-92
2022/04/10 11:40:26;;;;;;;3.70;2.50;;;;;;;;;;5112320;28;20219;-91
2022/04/10 11:42:54;;;;;;;4.37;2.53;;;;;;;;;;5114913;28;20237;-91
2022/04/10 11:45:23;;;;;;;5.10;2.47;;;;;;;;;;5110971;28;20673;-92
2022/04/10 11:47:51;;;;;;;3.37;2.37;;;;;;;;;;5096414;28;20228;-91
2022/04/10 11:50:19;;;;;;;3.57;2.80;;;;;;;;;;5109183;28;20192;-91
2022/04/10 11:52:57;;;;;;;5.03;3.30;;;;;;;;;;5116931;27;20289;-91
2022/04/10 11:55:29;;;;;;;4.70;2.70;;;;;;;;;;5115596;28;20644;-93
2022/04/10 11:57:56;;;;;;;4.70;3.00;;;;;;;;;;5112504;28;20238;-93
2022/04/10 12:00:24;;;;;;;3.80;2.70;;;;;;;;;;5115942;28;20219;-93
2022/04/10 12:02:53;;;;;;;6.37;2.90;;;;;;;;;;5115583;28;20298;-93
2022/04/10 12:05:21;;;;;;;3.97;2.60;;;;;;;;;;5107452;28;20212;-93
2022/04/10 12:07:48;;;;;;;4.33;2.90;;;;;;;;;;5109145;28;20261;-92
2022/04/10 12:10:20;;;;;;;4.37;2.93;;;;;;;;;;5112186;28;20211;-92
2022/04/10 12:12:47;;;;;;;4.13;3.33;;;;;;;;;;5112646;27;20237;-92
2022/04/10 12:15:19;;;;;;;6.77;3.20;;;;;;;;;;5107666;28;20204;-93
2022/04/10 12:17:46;;;;;;;2.70;2.40;;;;;;;;;;5112100;28;20238;-93
2022/04/10 12:20:15;;;;;;;4.50;2.77;;;;;;;;;;5111786;27;20690;-92
2022/04/10 12:22:43;;;;;;;3.30;3.00;;;;;;;;;;5107871;27;20294;-93
2022/04/10 12:25:11;;;;;;;5.83;2.77;;;;;;;;;;5112543;27;20679;-93
2022/04/10 12:27:39;;;;;;;3.60;3.00;;;;;;;;;;5114120;27;20235;-94
2022/04/10 12:30:09;;;;;;;5.37;2.97;;;;;;;;;;5108428;28;20245;-92
2022/04/10 12:32:37;;;;;;;3.97;2.73;;;;;;;;;;5108751;27;20238;-92
2022/04/10 12:35:08;;;;;;;4.43;2.80;;;;;;;;;;5111780;28;21351;-92
2022/04/10 12:37:37;;;;;;;3.57;3.27;;;;;;;;;;5113042;27;20239;-93
2022/04/10 12:40:06;;;;;;;3.60;2.53;;;;;;;;;;5102211;28;20915;-93
2022/04/10 12:42:39;;;;;;;3.00;2.70;;;;;;;;;;5112097;27;20216;-93
2022/04/10 12:45:08;;;;;;;4.47;2.80;;;;;;;;;;5112055;28;20276;-92
2022/04/10 12:47:42;;;;;;;3.43;2.87;;;;;;;;;;5111977;28;20223;-93
2022/04/10 12:50:11;;;;;;;4.33;2.93;;;;;;;;;;5099036;28;20203;-94
2022/04/10 12:52:44;;;;;;;2.97;2.43;;;;;;;;;;5111423;27;20204;-93
2022/04/10 12:55:21;;;;;;;3.53;2.93;;;;;;;;;;5105279;28;20207;-93
2022/04/10 12:57:55;;;;;;;1.30;1.20;;;;;;;;;;5111194;27;20290;-93
2022/04/10 13:00:27;;;;;;;3.10;2.10;;;;;;;;;;5110337;27;20227;-92
2022/04/10 13:02:54;;;;;;;2.30;1.80;;;;;;;;;;5114998;28;20233;-94
2022/04/10 13:05:21;;;;;;;4.63;2.77;;;;;;;;;;5117086;28;20269;-94
2022/04/10 13:08:00;;;;;;;3.80;2.63;;;;;;;;;;5117743;27;20203;-93
2022/04/10 13:10:28;;;;;;;2.60;2.40;;;;;;;;;;5120454;27;20260;-94
2022/04/10 13:13:06;;;;;;;3.07;2.77;;;;;;;;;;5120665;28;20216;-93
2022/04/10 13:15:35;;;;;;;2.60;2.40;;;;;;;;;;5118613;28;20272;-92
2022/04/10 13:18:03;;;;;;;3.47;2.60;;;;;;;;;;5115509;28;20230;-92
2022/04/10 13:20:30;;;;;;;2.77;1.70;;;;;;;;;;5123755;27;20289;-93
2022/04/10 13:22:57;;;;;;;4.20;2.67;;;;;;;;;;5120154;28;20215;-93
2022/04/10 13:25:32;;;;;;;2.87;2.13;;;;;;;;;;5121606;27;20212;-93
2022/04/10 13:27:59;;;;;;;4.40;2.43;;;;;;;;;;5114307;27;20237;-94
2022/04/10 13:30:26;;;;;;;3.23;2.20;;;;;;;;;;5115597;27;20204;-94
2022/04/10 13:32:54;;;;;;;2.77;2.50;;;;;;;;;;5114787;28;20225;-92
2022/04/10 13:35:21;;;;;;;2.73;2.00;;;;;;;;;;5105371;27;20260;-93
2022/04/10 13:37:49;;;;;;;3.83;2.80;;;;;;;;;;5114169;28;20215;-93
2022/04/10 13:40:16;;;;;;;2.60;2.40;;;;;;;;;;5117022;27;20648;-91
2022/04/10 13:42:46;;;;;;;2.40;2.20;;;;;;;;;;5118512;27;20204;-93
2022/04/10 13:45:13;;;;;;;3.13;2.43;;;;;;;;;;5102661;27;20212;-93
2022/04/10 13:47:41;;;;;;;4.47;3.27;;;;;;;;;;5113790;27;20318;-93
2022/04/10 13:50:09;;;;;;;2.93;2.67;;;;;;;;;;5119289;27;20204;-93
2022/04/10 13:52:37;;;;;;;3.93;2.57;;;;;;;;;;5108190;28;20208;-93
2022/04/10 13:55:05;;;;;;;5.13;3.13;;;;;;;;;;5105807;28;20905;-93
2022/04/10 13:57:32;;;;;;;3.80;2.93;;;;;;;;;;5109152;27;20309;-92
2022/04/10 14:00:01;;;;;;;3.63;3.33;;;;;;;;;;5103594;27;20301;-93
2022/04/10 14:02:28;;;;;;;5.47;2.43;;;;;;;;;;5110735;28;20256;-91
2022/04/10 14:04:56;;;;;;;4.03;2.80;;;;;;;;;;5110122;28;20587;-93
2022/04/10 14:07:23;;;;;;;3.23;2.93;;;;;;;;;;5105639;27;20657;-93
2022/04/10 14:09:50;;;;;;;3.63;2.50;;;;;;;;;;5109749;27;20204;-93
2022/04/10 14:12:19;;;;;;;4.47;2.70;;;;;;;;;;5113736;28;20253;-91
2022/04/10 14:14:47;;;;;;;4.83;2.97;;;;;;;;;;5099758;28;20266;-93
2022/04/10 14:17:16;;;;;;;3.23;2.93;;;;;;;;;;5108154;27;20223;-93
2022/04/10 14:19:44;;;;;;;2.90;2.70;;;;;;;;;;5110982;27;20222;-93
2022/04/10 14:22:11;;;;;;;2.60;2.40;;;;;;;;;;5106272;28;20209;-92
2022/04/10 14:24:38;;;;;;;5.43;2.50;;;;;;;;;;5109920;28;20264;-93
2022/04/10 14:27:06;;;;;;;3.63;2.50;;;;;;;;;;5111041;28;20216;-93
2022/04/10 14:29:35;;;;;;;3.73;2.50;;;;;;;;;;5113173;27;20207;-92
2022/04/10 14:32:03;;;;;;;6.23;3.20;;;;;;;;;;5103927;28;20200;-93
2022/04/10 14:34:33;;;;;;;2.77;2.30;;;;;;;;;;5109663;28;20211;-93
2022/04/10 14:37:01;;;;;;;2.63;2.40;;;;;;;;;;5114746;27;20244;-93
2022/04/10 14:39:28;;;;;;;4.33;2.53;;;;;;;;;;5106923;28;20292;-93
2022/04/10 14:41:55;;;;;;;2.50;2.30;;;;;;;;;;5108754;28;20723;-93
2022/04/10 14:44:23;;;;;;;2.20;2.00;;;;;;;;;;5098801;28;20678;-93
2022/04/10 14:46:50;;;;;;;2.40;2.20;;;;;;;;;;5108430;28;20255;-93
2022/04/10 14:49:17;;;;;;;3.40;2.57;;;;;;;;;;5112301;28;20234;-93
2022/04/10 14:51:47;;;;;;;3.63;2.33;;;;;;;;;;5112873;28;20208;-93
2022/04/10 14:54:15;;;;;;;4.17;2.47;;;;;;;;;;5107437;28;20284;-93